createdAt,value
2022-10-07T00:02:21.758Z,4.20
2022-10-07T00:04:51.101Z,3.42
2022-10-07T00:07:20.353Z,3.40
2022-10-07T00:09:49.557Z,3.35
2022-10-07T00:12:19.115Z,3.40
2022-10-07T00:14:48.403Z,3.25
2022-10-07T00:17:17.682Z,3.90
2022-10-07T00:19:46.955Z,3.63
2022-10-07T00:22:16.258Z,3.80
2022-10-07T00:24:45.608Z,3.90
2022-10-07T00:27:14.842Z,4.05
2022-10-07T00:29:44.146Z,3.22
2022-10-07T00:32:13.384Z,4.05
2022-10-07T00:34:42.627Z,3.63
2022-10-07T00:37:11.866Z,3.20
2022-10-07T00:39:41.116Z,3.63
2022-10-07T00:42:10.421Z,4.22
2022-10-07T00:44:49.550Z,3.33
2022-10-07T00:47:36.780Z,3.42
2022-10-07T00:50:30.570Z,3.95
2022-10-07T00:53:04.703Z,4.05
2022-10-07T00:55:35.420Z,3.90
2022-10-07T00:58:08.810Z,3.50
2022-10-07T01:00:42.552Z,4.03
2022-10-07T01:03:11.860Z,4.40
2022-10-07T01:05:41.244Z,3.65
2022-10-07T01:08:15.721Z,4.40
2022-10-07T01:11:01.287Z,4.22
2022-10-07T01:13:42.767Z,3.50
2022-10-07T01:16:29.599Z,3.55
2022-10-07T01:19:21.289Z,4.07
2022-10-07T01:22:14.185Z,3.83
2022-10-07T01:27:21.604Z,3.78
2022-10-07T01:29:58.549Z,4.20
2022-10-07T01:32:36.744Z,4.03
2022-10-07T01:35:10.623Z,4.45
2022-10-07T01:37:46.741Z,4.00
2022-10-07T01:40:20.823Z,4.32
2022-10-07T01:42:51.986Z,4.72
2022-10-07T01:45:23.405Z,3.63
2022-10-07T01:47:53.664Z,4.03
2022-10-07T01:50:28.722Z,4.30
2022-10-07T01:53:12.937Z,3.72
2022-10-07T01:56:07.611Z,4.50
2022-10-07T01:58:49.832Z,4.38
2022-10-07T02:01:31.628Z,5.00
2022-10-07T02:04:39.055Z,4.70
2022-10-07T02:07:21.895Z,4.35
2022-10-07T02:12:31.336Z,4.20
2022-10-07T02:15:47.806Z,5.53
2022-10-07T02:18:20.390Z,4.07
2022-10-07T02:23:25.460Z,4.63
2022-10-07T02:25:57.467Z,3.85
2022-10-07T02:28:28.092Z,4.43
2022-10-07T02:31:02.753Z,3.90
2022-10-07T02:33:36.691Z,4.13
2022-10-07T02:36:13.823Z,4.18
2022-10-07T02:38:43.526Z,3.78
2022-10-07T02:41:33.831Z,4.60
2022-10-07T02:44:34.183Z,4.45
2022-10-07T02:47:06.339Z,4.82
2022-10-07T02:49:40.346Z,4.88
2022-10-07T02:52:14.022Z,4.05
2022-10-07T02:54:48.582Z,4.47
2022-10-07T02:57:21.691Z,4.45
2022-10-07T02:59:53.854Z,3.95
2022-10-07T03:05:01.010Z,4.18
2022-10-07T03:07:31.374Z,3.92
2022-10-07T03:10:01.873Z,4.15
2022-10-07T03:12:31.384Z,4.20
2022-10-07T03:15:01.468Z,4.90
2022-10-07T03:17:30.826Z,3.85
2022-10-07T03:20:00.564Z,4.10
2022-10-07T03:22:29.955Z,3.75
2022-10-07T03:24:59.332Z,4.10
2022-10-07T03:27:28.939Z,4.28
2022-10-07T03:29:58.649Z,3.50
2022-10-07T03:32:29.078Z,4.10
2022-10-07T03:34:59.457Z,4.13
2022-10-07T03:37:29.700Z,4.18
2022-10-07T03:40:01.437Z,3.58
2022-10-07T03:42:30.754Z,4.63
2022-10-07T03:45:00.224Z,4.60
2022-10-07T03:47:30.684Z,4.63
2022-10-07T03:49:59.986Z,4.13
2022-10-07T03:52:29.281Z,4.05
2022-10-07T03:54:59.535Z,4.18
2022-10-07T03:57:41.487Z,3.92
2022-10-07T04:00:11.439Z,4.20
2022-10-07T04:02:44.277Z,3.78
2022-10-07T04:05:15.900Z,4.63
2022-10-07T04:07:47.771Z,4.07
2022-10-07T04:10:20.455Z,4.60
2022-10-07T04:12:52.347Z,4.05
2022-10-07T04:15:23.067Z,3.40
2022-10-07T04:17:58.707Z,4.75
2022-10-07T04:20:29.166Z,4.90
2022-10-07T04:22:58.685Z,3.97
2022-10-07T04:25:38.570Z,3.58
2022-10-07T04:28:20.313Z,4.03
2022-10-07T04:30:54.054Z,4.07
2022-10-07T04:33:30.052Z,3.60
2022-10-07T04:36:05.513Z,4.00
2022-10-07T04:38:35.530Z,3.40
2022-10-07T04:41:08.261Z,4.13
2022-10-07T04:43:39.713Z,4.43
2022-10-07T04:46:15.347Z,4.07
2022-10-07T04:48:50.731Z,3.90
2022-10-07T04:51:25.379Z,3.75
2022-10-07T04:53:58.346Z,3.78
2022-10-07T04:56:33.393Z,3.63
2022-10-07T04:59:05.162Z,3.92
2022-10-07T05:01:34.857Z,4.88
2022-10-07T05:04:04.760Z,3.75
2022-10-07T05:06:35.562Z,3.63
2022-10-07T05:09:04.851Z,3.85
2022-10-07T05:11:37.679Z,4.20
2022-10-07T05:14:15.230Z,3.70
2022-10-07T05:16:44.681Z,3.42
2022-10-07T05:19:15.063Z,3.95
2022-10-07T05:21:45.090Z,3.28
2022-10-07T05:24:14.582Z,3.75
2022-10-07T05:26:44.699Z,3.65
2022-10-07T05:29:14.196Z,4.32
2022-10-07T05:31:49.432Z,3.67
2022-10-07T05:34:22.887Z,4.03
2022-10-07T05:36:52.834Z,3.20
2022-10-07T05:39:22.726Z,3.80
2022-10-07T05:41:55.859Z,3.10
2022-10-07T05:44:32.357Z,4.95
2022-10-07T05:47:04.836Z,3.80
2022-10-07T05:49:36.237Z,3.80
2022-10-07T05:52:07.945Z,3.33
2022-10-07T05:54:38.739Z,4.93
2022-10-07T05:57:09.005Z,4.50
2022-10-07T05:59:38.922Z,3.58
2022-10-07T06:02:12.079Z,3.38
2022-10-07T06:04:43.343Z,3.75
2022-10-07T06:07:19.523Z,3.45
2022-10-07T06:10:03.772Z,4.10
2022-10-07T06:12:46.695Z,3.95
2022-10-07T06:15:17.531Z,4.10
2022-10-07T06:17:50.364Z,4.30
2022-10-07T06:20:23.042Z,4.20
2022-10-07T06:22:59.031Z,4.10
2022-10-07T06:25:30.400Z,3.80
2022-10-07T06:28:01.868Z,3.55
2022-10-07T06:30:33.096Z,4.43
2022-10-07T06:33:04.706Z,3.58
2022-10-07T06:35:35.374Z,4.07
2022-10-07T06:38:05.526Z,3.72
2022-10-07T06:40:36.535Z,3.20
2022-10-07T06:43:06.451Z,4.07
2022-10-07T06:45:49.210Z,4.22
2022-10-07T06:48:19.459Z,4.65
2022-10-07T06:50:58.728Z,4.82
2022-10-07T06:53:31.418Z,3.58
2022-10-07T06:56:07.176Z,3.08
2022-10-07T06:58:38.682Z,3.58
2022-10-07T07:01:10.391Z,3.35
2022-10-07T07:03:40.666Z,3.63
2022-10-07T07:06:12.861Z,3.47
2022-10-07T07:08:46.175Z,4.47
2022-10-07T07:11:29.765Z,3.30
2022-10-07T07:14:03.676Z,3.28
2022-10-07T07:16:35.527Z,4.00
2022-10-07T07:19:09.067Z,3.13
2022-10-07T07:21:41.508Z,3.08
2022-10-07T07:24:15.531Z,3.45
2022-10-07T07:26:46.975Z,4.03
2022-10-07T07:29:17.896Z,4.35
2022-10-07T07:31:52.465Z,3.50
2022-10-07T07:34:25.200Z,3.20
2022-10-07T07:36:55.447Z,2.72
2022-10-07T07:39:29.847Z,3.45
2022-10-07T07:42:07.911Z,2.72
2022-10-07T07:44:40.484Z,2.88
2022-10-07T07:47:16.611Z,3.05
2022-10-07T07:49:47.444Z,4.03
2022-10-07T07:52:25.860Z,3.53
2022-10-07T07:54:59.790Z,2.50
2022-10-07T07:57:31.165Z,2.90
2022-10-07T08:00:05.671Z,2.60
2022-10-07T08:02:44.122Z,3.22
2022-10-07T08:05:23.942Z,3.05
2022-10-07T08:07:59.067Z,2.58
2022-10-07T08:10:30.423Z,2.97
2022-10-07T08:13:00.589Z,3.10
2022-10-07T08:15:31.026Z,3.20
2022-10-07T08:18:01.398Z,2.85
2022-10-07T08:20:32.047Z,3.50
2022-10-07T08:23:03.222Z,4.18
2022-10-07T08:25:35.107Z,3.20
2022-10-07T08:28:07.968Z,3.65
2022-10-07T08:30:39.039Z,2.67
2022-10-07T08:33:09.483Z,2.78
2022-10-07T08:35:40.407Z,3.20
2022-10-07T08:38:14.514Z,2.72
2022-10-07T08:40:53.463Z,3.30
2022-10-07T08:43:26.745Z,3.58
2022-10-07T08:46:00.199Z,3.15
2022-10-07T08:48:39.296Z,3.00
2022-10-07T08:51:20.327Z,3.17
2022-10-07T08:53:59.193Z,3.30
2022-10-07T08:56:32.390Z,2.90
2022-10-07T08:59:11.822Z,3.72
2022-10-07T09:02:09.575Z,3.22
2022-10-07T09:05:01.729Z,3.20
2022-10-07T09:07:55.201Z,2.72
2022-10-07T09:10:37.688Z,2.33
2022-10-07T09:13:10.710Z,3.90
2022-10-07T09:16:15.178Z,2.30
2022-10-07T09:18:54.767Z,2.97
2022-10-07T09:21:32.473Z,3.30
2022-10-07T09:24:30.818Z,2.53
2022-10-07T09:27:11.634Z,2.00
2022-10-07T09:29:42.029Z,2.67
2022-10-07T09:32:18.928Z,3.08
2022-10-07T09:34:49.744Z,2.90
2022-10-07T09:37:21.967Z,2.55
2022-10-07T09:42:29.935Z,2.88
2022-10-07T09:45:03.050Z,2.08
2022-10-07T09:47:42.221Z,2.45
2022-10-07T09:50:33.966Z,2.60
2022-10-07T09:53:04.925Z,2.63
2022-10-07T09:55:42.113Z,3.42
2022-10-07T09:58:30.078Z,2.25
2022-10-07T10:01:02.545Z,2.50
2022-10-07T10:03:33.914Z,1.80
2022-10-07T10:06:06.764Z,2.20
2022-10-07T10:08:42.717Z,2.35
2022-10-07T10:11:21.975Z,2.20
2022-10-07T10:13:54.249Z,2.78
2022-10-07T10:16:27.762Z,1.55
2022-10-07T10:19:24.343Z,2.10
2022-10-07T10:21:59.606Z,2.05
2022-10-07T10:24:45.861Z,2.85
2022-10-07T10:27:25.959Z,1.52
2022-10-07T10:30:04.442Z,2.42
2022-10-07T10:33:01.289Z,1.92
2022-10-07T10:35:34.129Z,2.65
2022-10-07T10:38:27.707Z,1.65
2022-10-07T10:41:08.737Z,1.92
2022-10-07T10:44:10.845Z,2.03
2022-10-07T10:47:15.487Z,2.55
2022-10-07T10:50:14.217Z,1.73
2022-10-07T10:52:50.838Z,1.67
2022-10-07T10:55:33.603Z,2.90
2022-10-07T10:58:15.510Z,3.80
2022-10-07T11:01:08.918Z,1.50
2022-10-07T11:04:00.228Z,1.98
2022-10-07T11:06:35.681Z,2.08
2022-10-07T11:09:07.924Z,1.80
2022-10-07T11:11:39.090Z,1.60
2022-10-07T11:14:23.002Z,1.88
2022-10-07T11:16:58.623Z,2.30
2022-10-07T11:19:47.000Z,2.45
2022-10-07T11:22:22.014Z,2.00
2022-10-07T11:24:57.281Z,2.92
2022-10-07T11:27:32.861Z,1.98
2022-10-07T11:30:20.357Z,2.15
2022-10-07T11:32:56.211Z,1.80
2022-10-07T11:35:26.743Z,1.52
2022-10-07T11:38:15.501Z,2.22
2022-10-07T11:40:48.929Z,1.90
2022-10-07T11:43:28.369Z,2.50
2022-10-07T11:46:17.573Z,1.80
2022-10-07T11:48:57.511Z,2.10
2022-10-07T11:51:30.778Z,2.00
2022-10-07T11:54:07.146Z,1.85
2022-10-07T11:56:49.657Z,1.58
2022-10-07T11:59:35.239Z,1.90
2022-10-07T12:02:07.113Z,1.20
2022-10-07T12:04:39.885Z,2.17
2022-10-07T12:07:46.043Z,1.80
2022-10-07T12:10:30.181Z,2.15
2022-10-07T12:13:05.235Z,1.85
2022-10-07T12:15:45.289Z,1.80
2022-10-07T12:18:18.685Z,1.55
2022-10-07T12:20:55.051Z,2.33
2022-10-07T12:23:26.387Z,1.70
2022-10-07T12:26:05.048Z,2.05
2022-10-07T12:28:37.355Z,1.67
2022-10-07T12:31:08.868Z,2.05
2022-10-07T12:33:48.652Z,2.10
2022-10-07T12:36:24.957Z,2.03
2022-10-07T12:39:00.300Z,1.80
2022-10-07T12:41:33.632Z,2.35
2022-10-07T12:44:25.932Z,2.03
2022-10-07T12:46:57.490Z,2.17
2022-10-07T12:49:54.949Z,1.85
2022-10-07T12:52:46.361Z,1.90
2022-10-07T12:55:29.307Z,1.60
2022-10-07T12:58:16.413Z,1.55
2022-10-07T13:01:04.987Z,3.08
2022-10-07T13:04:09.317Z,1.77
2022-10-07T13:07:17.091Z,2.15
2022-10-07T13:10:07.590Z,1.70
2022-10-07T13:12:51.165Z,1.90
2022-10-07T13:15:41.425Z,2.60
2022-10-07T13:18:32.031Z,2.00
2022-10-07T13:21:22.967Z,1.75
2022-10-07T13:23:57.291Z,1.67
2022-10-07T13:26:29.164Z,1.70
2022-10-07T13:29:01.013Z,1.70
2022-10-07T13:31:33.432Z,2.28
2022-10-07T13:34:17.961Z,1.67
2022-10-07T13:36:47.250Z,1.67
2022-10-07T13:39:24.430Z,1.40
2022-10-07T13:41:59.433Z,2.45
2022-10-07T13:44:32.735Z,2.28
2022-10-07T13:47:04.804Z,2.10
2022-10-07T13:49:55.997Z,1.40
2022-10-07T13:52:39.635Z,1.77
2022-10-07T13:55:32.699Z,1.92
2022-10-07T13:58:06.450Z,2.22
2022-10-07T14:00:43.291Z,1.90
2022-10-07T14:03:20.083Z,2.88
2022-10-07T14:06:00.853Z,2.30
2022-10-07T14:08:31.776Z,1.15
2022-10-07T14:11:10.035Z,1.55
2022-10-07T14:13:39.528Z,1.58
2022-10-07T14:16:08.990Z,2.53
2022-10-07T14:18:38.307Z,2.05
2022-10-07T14:21:17.048Z,1.70
2022-10-07T14:23:48.833Z,2.38
2022-10-07T14:26:19.092Z,1.95
2022-10-07T14:28:48.688Z,2.05
2022-10-07T14:31:30.512Z,2.58
2022-10-07T14:34:12.353Z,1.65
2022-10-07T14:37:13.803Z,3.28
2022-10-07T14:39:51.193Z,1.73
2022-10-07T14:42:32.974Z,2.05
2022-10-07T14:45:08.299Z,2.78
2022-10-07T14:47:41.468Z,2.13
2022-10-07T14:50:11.319Z,1.67
2022-10-07T14:52:47.697Z,1.85
2022-10-07T14:55:29.135Z,2.05
2022-10-07T14:58:00.478Z,1.92
2022-10-07T15:00:32.897Z,2.47
2022-10-07T15:03:06.110Z,1.73
2022-10-07T15:05:35.490Z,2.67
2022-10-07T15:08:04.963Z,1.95
2022-10-07T15:10:34.858Z,2.00
2022-10-07T15:13:08.713Z,1.88
2022-10-07T15:15:46.199Z,1.95
2022-10-07T15:18:15.523Z,1.50
2022-10-07T15:20:44.911Z,2.15
2022-10-07T15:23:14.888Z,1.65
2022-10-07T15:25:44.695Z,1.50
2022-10-07T15:28:15.539Z,1.60
2022-10-07T15:30:45.031Z,1.95
2022-10-07T15:33:14.888Z,2.05
2022-10-07T15:35:46.322Z,1.92
2022-10-07T15:38:15.599Z,1.67
2022-10-07T15:40:56.357Z,1.65
2022-10-07T15:43:26.238Z,1.90
2022-10-07T15:45:55.834Z,2.15
2022-10-07T15:48:26.119Z,2.00
2022-10-07T15:50:56.394Z,3.08
2022-10-07T15:53:26.921Z,1.77
2022-10-07T15:55:58.893Z,1.70
2022-10-07T15:58:32.002Z,1.55
2022-10-07T16:01:05.404Z,2.63
2022-10-07T16:03:43.619Z,1.55
2022-10-07T16:06:17.421Z,2.20
2022-10-07T16:08:47.023Z,2.63
2022-10-07T16:11:17.238Z,1.83
2022-10-07T16:13:48.138Z,1.92
2022-10-07T16:16:23.434Z,2.17
2022-10-07T16:18:55.486Z,2.15
2022-10-07T16:21:30.600Z,2.05
2022-10-07T16:24:09.776Z,2.92
2022-10-07T16:26:39.488Z,2.80
2022-10-07T16:29:23.089Z,2.50
2022-10-07T16:31:59.149Z,2.25
2022-10-07T16:34:30.368Z,2.33
2022-10-07T16:37:01.028Z,2.70
2022-10-07T16:39:30.324Z,2.25
2022-10-07T16:41:59.989Z,2.22
2022-10-07T16:44:29.776Z,2.50
2022-10-07T16:46:59.565Z,2.97
2022-10-07T16:49:30.414Z,2.35
2022-10-07T16:52:00.605Z,2.10
2022-10-07T16:54:31.958Z,2.60
2022-10-07T16:57:01.263Z,2.13
2022-10-07T16:59:30.879Z,2.60
2022-10-07T17:02:02.699Z,2.67
2022-10-07T17:04:32.302Z,2.95
2022-10-07T17:07:02.089Z,2.42
2022-10-07T17:09:31.416Z,1.80
2022-10-07T17:12:00.735Z,1.85
2022-10-07T17:14:31.693Z,2.15
2022-10-07T17:17:01.567Z,2.40
2022-10-07T17:19:31.661Z,2.78
2022-10-07T17:22:02.789Z,1.88
2022-10-07T17:24:34.835Z,2.05
2022-10-07T17:27:04.103Z,2.28
2022-10-07T17:29:34.298Z,2.60
2022-10-07T17:32:04.158Z,5.22
2022-10-07T17:34:34.345Z,3.13
2022-10-07T17:37:03.611Z,2.78
2022-10-07T17:39:33.681Z,3.55
2022-10-07T17:42:03.019Z,2.53
2022-10-07T17:44:35.270Z,3.45
2022-10-07T17:49:35.022Z,3.30
2022-10-07T17:52:04.336Z,3.10
2022-10-07T17:54:33.736Z,4.22
2022-10-07T17:57:04.384Z,4.03
2022-10-07T17:59:34.038Z,2.70
2022-10-07T18:02:03.356Z,2.85
2022-10-07T18:04:32.669Z,3.17
2022-10-07T18:07:01.962Z,2.67
2022-10-07T18:09:31.245Z,2.50
2022-10-07T18:12:13.028Z,2.42
2022-10-07T18:14:54.774Z,3.00
2022-10-07T18:17:25.168Z,2.58
2022-10-07T18:19:54.787Z,2.22
2022-10-07T18:22:24.393Z,2.92
2022-10-07T18:24:57.132Z,2.42
2022-10-07T18:27:27.600Z,2.85
2022-10-07T18:29:57.821Z,2.45
2022-10-07T18:32:27.635Z,2.95
2022-10-07T18:34:56.912Z,3.35
2022-10-07T18:37:26.391Z,3.42
2022-10-07T18:39:55.690Z,4.50
2022-10-07T18:42:25.000Z,3.70
2022-10-07T18:44:55.006Z,2.70
2022-10-07T18:47:24.693Z,2.13
2022-10-07T18:49:57.092Z,2.60
2022-10-07T18:52:26.368Z,2.60
2022-10-07T18:54:55.825Z,2.50
2022-10-07T18:57:25.156Z,2.85
2022-10-07T18:59:54.405Z,3.00
2022-10-07T19:02:23.690Z,3.35
2022-10-07T19:04:53.395Z,2.28
2022-10-07T19:07:22.654Z,3.20
2022-10-07T19:09:51.912Z,2.60
2022-10-07T19:12:33.648Z,2.55
2022-10-07T19:15:02.893Z,3.17
2022-10-07T19:17:32.167Z,2.45
2022-10-07T19:20:01.617Z,3.33
2022-10-07T19:22:30.892Z,2.40
2022-10-07T19:25:12.672Z,2.70
2022-10-07T19:27:41.907Z,3.10
2022-10-07T19:30:11.813Z,3.47
2022-10-07T19:32:41.119Z,3.17
2022-10-07T19:35:10.666Z,4.43
2022-10-07T19:37:42.009Z,2.47
2022-10-07T19:40:12.459Z,2.70
2022-10-07T19:42:41.837Z,2.42
2022-10-07T19:45:12.205Z,3.13
2022-10-07T19:47:41.493Z,2.28
2022-10-07T19:50:11.275Z,3.00
2022-10-07T19:52:40.557Z,2.80
2022-10-07T19:55:10.431Z,2.95
2022-10-07T19:57:40.019Z,2.50
2022-10-07T20:00:09.848Z,2.67
2022-10-07T20:02:41.594Z,2.55
2022-10-07T20:05:11.126Z,3.03
2022-10-07T20:07:40.348Z,2.70
2022-10-07T20:10:10.240Z,2.63
2022-10-07T20:12:39.988Z,2.45
2022-10-07T20:15:10.194Z,2.65
2022-10-07T20:17:39.602Z,2.17
2022-10-07T20:20:09.299Z,2.95
2022-10-07T20:22:38.568Z,2.55
2022-10-07T20:25:08.433Z,2.50
2022-10-07T20:27:37.819Z,2.45
2022-10-07T20:30:17.491Z,2.28
2022-10-07T20:32:47.740Z,2.30
2022-10-07T20:35:17.271Z,2.55
2022-10-07T20:37:46.588Z,2.13
2022-10-07T20:40:28.385Z,2.95
2022-10-07T20:42:58.735Z,2.72
2022-10-07T20:45:28.056Z,2.53
2022-10-07T20:47:59.635Z,2.47
2022-10-07T20:50:28.889Z,2.00
2022-10-07T20:52:58.170Z,2.38
2022-10-07T20:55:27.483Z,2.63
2022-10-07T20:57:56.807Z,2.22
2022-10-07T21:00:26.099Z,2.30
2022-10-07T21:02:55.477Z,2.88
2022-10-07T21:05:24.776Z,2.53
2022-10-07T21:07:54.911Z,3.08
2022-10-07T21:10:24.345Z,2.47
2022-10-07T21:12:53.694Z,2.97
2022-10-07T21:15:22.990Z,2.80
2022-10-07T21:17:52.255Z,2.55
2022-10-07T21:20:21.540Z,3.42
2022-10-07T21:22:52.176Z,2.97
2022-10-07T21:25:21.485Z,2.67
2022-10-07T21:27:50.755Z,3.20
2022-10-07T21:30:20.209Z,4.10
2022-10-07T21:32:50.116Z,3.22
2022-10-07T21:35:19.489Z,3.72
2022-10-07T21:37:48.758Z,2.80
2022-10-07T21:40:18.050Z,3.08
2022-10-07T21:42:47.649Z,2.85
2022-10-07T21:45:17.140Z,3.13
2022-10-07T21:47:46.390Z,2.80
2022-10-07T21:50:15.720Z,2.75
2022-10-07T21:52:45.302Z,2.90
2022-10-07T21:55:14.828Z,2.80
2022-10-07T21:57:44.065Z,2.80
2022-10-07T22:00:14.239Z,2.88
2022-10-07T22:02:43.634Z,3.33
2022-10-07T22:05:15.327Z,2.97
2022-10-07T22:08:02.563Z,2.93
2022-10-07T22:10:31.815Z,3.50
2022-10-07T22:13:01.062Z,2.63
2022-10-07T22:15:30.430Z,2.28
2022-10-07T22:17:59.760Z,2.70
2022-10-07T22:20:29.066Z,3.08
2022-10-07T22:23:00.059Z,2.88
2022-10-07T22:25:29.499Z,2.50
2022-10-07T22:27:58.922Z,2.10
2022-10-07T22:30:28.333Z,2.53
2022-10-07T22:32:57.731Z,2.13
2022-10-07T22:35:27.634Z,2.53
2022-10-07T22:37:58.765Z,2.45
2022-10-07T22:40:29.046Z,2.60
2022-10-07T22:42:58.391Z,3.10
2022-10-07T22:45:27.648Z,2.17
2022-10-07T22:47:56.880Z,2.42
2022-10-07T22:50:26.163Z,2.67
2022-10-07T22:52:56.852Z,2.60
2022-10-07T22:55:27.151Z,2.63
2022-10-07T22:57:56.519Z,2.22
2022-10-07T23:00:25.788Z,2.63
2022-10-07T23:02:56.399Z,2.67
2022-10-07T23:05:25.718Z,2.40
2022-10-07T23:07:55.347Z,2.53
2022-10-07T23:10:25.377Z,2.17
2022-10-07T23:12:54.756Z,2.45
2022-10-07T23:15:24.005Z,3.05
2022-10-07T23:17:53.272Z,2.50
2022-10-07T23:20:25.555Z,2.28
2022-10-07T23:22:54.781Z,2.55
2022-10-07T23:25:26.338Z,3.10
2022-10-07T23:27:55.621Z,2.70
2022-10-07T23:30:24.874Z,3.10
2022-10-07T23:32:54.120Z,2.33
2022-10-07T23:35:23.452Z,3.13
2022-10-07T23:37:54.064Z,3.13
2022-10-07T23:40:23.896Z,3.85
2022-10-07T23:42:53.173Z,2.40
2022-10-07T23:45:22.419Z,2.53
2022-10-07T23:47:51.697Z,2.33
2022-10-07T23:50:21.045Z,2.95
2022-10-07T23:52:50.389Z,3.05
2022-10-07T23:55:19.755Z,2.50
2022-10-07T23:57:49.047Z,2.55
